Terminal Aerodrome Forecast
Issued by NWS

Home | Current Version | Previous Version | Text Only | Print | Product List | Glossary On
Versions: 1 2 3 4 5 6 7 8 9 10 11 12 13 14 15 16 17 18 19 20 21 22 23 24 25 26 27 28 29
000
FTPQ31 PGUM 262113 RRE
TAFGRO
TAF

TAF
PGWT 262113Z 2621/2718 04012G22KT P6SM FEW025 SCT060 SCT120
     FM270100 04016G26KT P6SM VCSH FEW020 SCT050 BKN120
     FM270800 05014KT P6SM VCSH FEW020 SCT050 BKN120=

USA.gov is the U.S. government's official web portal to all federal, state and local government web resources and services.